Pittsburgh, Pennsylvania
Traffic Map
Current Weather Conditions
Pittsburgh, Pennsylvania
Clear
Clear
88°
Feels Like: 88°
Wind Chill: 88° Ceiling: Unl
Heat Index: 88° Visibility: 10mi
Dew Point: 61° Wind: 6mph
Humidity: 40% Direction: 60° (ENE)
Pressure: 30in Gusts: 0mph
Raw Report DataKAGC 281953Z 06005KT 10SM CLR 31/16 A3000 RMK AO2 SLP153 T03110161
Traffic Incident Summary
Active as of:
Severity:
Category:
InformationThere was an issue retrieving the traffic information for this location. Please try a different location or try again shortly.
Advertisements
Track Severe Weather on mobile